createdAt,value
2017-08-23T00:01:51.955Z,15.20
2017-08-23T00:04:19.876Z,15.20
2017-08-23T00:06:47.442Z,15.30
2017-08-23T00:09:15.008Z,15.40
2017-08-23T00:11:42.630Z,15.40
2017-08-23T00:14:11.010Z,15.60
2017-08-23T00:16:38.599Z,15.60
2017-08-23T00:19:06.175Z,15.70
2017-08-23T00:21:33.771Z,15.70
2017-08-23T00:24:01.340Z,15.80
2017-08-23T00:26:29.326Z,15.80
2017-08-23T00:28:56.887Z,15.90
2017-08-23T00:31:24.471Z,15.90
2017-08-23T00:33:52.072Z,15.90
2017-08-23T00:36:19.627Z,15.90
2017-08-23T00:38:47.211Z,15.80
2017-08-23T00:41:14.765Z,15.80
2017-08-23T00:43:42.363Z,15.90
2017-08-23T00:46:09.937Z,15.90
2017-08-23T00:48:37.493Z,16.00
2017-08-23T00:51:05.101Z,16.10
2017-08-23T00:53:32.675Z,16.10
2017-08-23T00:56:00.265Z,16.20
2017-08-23T00:58:27.833Z,16.20
2017-08-23T01:00:55.431Z,16.30
2017-08-23T01:03:22.995Z,16.30
2017-08-23T01:05:50.892Z,16.40
2017-08-23T01:08:18.474Z,16.40
2017-08-23T01:10:46.059Z,16.50
2017-08-23T01:13:13.656Z,16.40
2017-08-23T01:15:41.213Z,16.50
2017-08-23T01:18:08.799Z,16.50
2017-08-23T01:20:36.433Z,16.50
2017-08-23T01:23:04.032Z,16.40
2017-08-23T01:25:31.599Z,16.30
2017-08-23T01:27:59.188Z,16.20
2017-08-23T01:30:26.758Z,16.10
2017-08-23T01:32:54.660Z,16.00
2017-08-23T01:35:22.259Z,16.00
2017-08-23T01:37:49.861Z,15.90
2017-08-23T01:40:17.470Z,15.90
2017-08-23T01:42:45.034Z,15.80
2017-08-23T01:45:12.659Z,15.80
2017-08-23T01:47:40.218Z,15.70
2017-08-23T01:50:07.794Z,15.70
2017-08-23T01:52:35.363Z,15.70
2017-08-23T01:55:03.293Z,15.70
2017-08-23T01:57:30.876Z,15.60
2017-08-23T01:59:58.842Z,15.60
2017-08-23T02:02:26.437Z,15.50
2017-08-23T02:04:54.093Z,15.50
2017-08-23T02:07:21.733Z,15.40
2017-08-23T02:09:49.297Z,15.30
2017-08-23T02:12:16.877Z,15.50
2017-08-23T02:14:44.442Z,15.50
2017-08-23T02:17:12.408Z,15.50
2017-08-23T02:19:39.992Z,15.50
2017-08-23T02:22:07.667Z,15.50
2017-08-23T02:24:35.242Z,15.40
2017-08-23T02:27:02.917Z,15.40
2017-08-23T02:29:30.754Z,15.30
2017-08-23T02:31:58.305Z,15.30
2017-08-23T02:34:25.864Z,15.20
2017-08-23T02:36:53.523Z,15.20
2017-08-23T02:39:21.109Z,15.30
2017-08-23T02:41:48.968Z,15.40
2017-08-23T02:44:16.547Z,15.50
2017-08-23T02:46:44.183Z,15.40
2017-08-23T02:49:11.780Z,15.30
2017-08-23T02:51:39.408Z,15.30
2017-08-23T02:54:07.280Z,15.20
2017-08-23T02:56:34.863Z,15.10
2017-08-23T02:59:02.463Z,15.10
2017-08-23T03:01:30.055Z,15.10
2017-08-23T03:03:57.617Z,15.10
2017-08-23T03:06:25.215Z,15.00
2017-08-23T03:08:52.823Z,15.00
2017-08-23T03:11:20.711Z,15.00
2017-08-23T03:13:48.281Z,15.10
2017-08-23T03:16:15.842Z,15.10
2017-08-23T03:18:43.503Z,15.00
2017-08-23T03:21:11.076Z,15.00
2017-08-23T03:23:38.679Z,15.10
2017-08-23T03:26:06.260Z,15.10
2017-08-23T03:28:34.113Z,15.10
2017-08-23T03:31:01.697Z,15.00
2017-08-23T03:33:29.262Z,15.00
2017-08-23T03:35:56.891Z,15.00
2017-08-23T03:38:24.545Z,15.00
2017-08-23T03:40:52.140Z,15.00
2017-08-23T03:43:19.703Z,15.00
2017-08-23T03:45:47.657Z,15.00
2017-08-23T03:48:15.293Z,15.10
2017-08-23T03:50:42.861Z,15.10
2017-08-23T03:53:10.460Z,15.10
2017-08-23T03:55:38.042Z,15.10
2017-08-23T03:58:05.633Z,15.00
2017-08-23T04:00:33.206Z,15.00
2017-08-23T04:03:01.183Z,15.00
2017-08-23T04:05:28.767Z,15.00
2017-08-23T04:07:56.357Z,14.90
2017-08-23T04:10:24.726Z,14.90
2017-08-23T04:12:53.070Z,14.90
2017-08-23T04:15:20.655Z,14.90
2017-08-23T04:17:48.221Z,15.00
2017-08-23T04:20:16.889Z,14.90
2017-08-23T04:22:44.451Z,14.90
2017-08-23T04:25:12.020Z,14.80
2017-08-23T04:27:40.375Z,14.60
2017-08-23T04:30:07.946Z,14.60
2017-08-23T04:32:35.542Z,14.60
2017-08-23T04:35:03.110Z,14.70
2017-08-23T04:37:31.000Z,14.70
2017-08-23T04:39:58.599Z,14.70
2017-08-23T04:42:26.211Z,14.70
2017-08-23T04:44:53.814Z,14.70
2017-08-23T04:47:21.394Z,14.80
2017-08-23T04:49:48.986Z,14.80
2017-08-23T04:52:16.584Z,14.90
2017-08-23T04:54:44.535Z,14.90
2017-08-23T04:57:12.117Z,15.00
2017-08-23T04:59:39.708Z,15.00
2017-08-23T05:02:07.297Z,14.90
2017-08-23T05:04:34.859Z,14.80
2017-08-23T05:07:02.453Z,14.90
2017-08-23T05:09:30.055Z,14.80
2017-08-23T05:11:57.954Z,14.80
2017-08-23T05:14:25.563Z,14.80
2017-08-23T05:16:53.326Z,14.80
2017-08-23T05:19:21.270Z,14.80
2017-08-23T05:21:48.844Z,14.90
2017-08-23T05:24:17.196Z,14.90
2017-08-23T05:26:44.771Z,14.90
2017-08-23T05:29:12.725Z,15.10
2017-08-23T05:31:40.311Z,15.10
2017-08-23T05:34:07.893Z,15.40
2017-08-23T05:36:35.502Z,15.70
2017-08-23T05:39:03.119Z,15.90
2017-08-23T05:41:30.703Z,15.90
2017-08-23T05:43:58.283Z,15.80
2017-08-23T05:46:26.141Z,15.80
2017-08-23T05:48:53.731Z,15.90
2017-08-23T05:51:22.152Z,16.70
2017-08-23T05:53:49.766Z,16.70
2017-08-23T05:56:17.344Z,18.90
2017-08-23T05:58:45.140Z,21.40
2017-08-23T06:01:12.782Z,23.30
2017-08-23T06:03:40.684Z,25.20
2017-08-23T06:06:08.264Z,26.80
2017-08-23T06:08:35.826Z,27.90
2017-08-23T06:11:03.446Z,28.60
2017-08-23T06:13:31.039Z,29.40
2017-08-23T06:15:58.675Z,29.90
2017-08-23T06:18:26.263Z,29.80
2017-08-23T06:20:54.191Z,30.60
2017-08-23T06:23:21.760Z,31.30
2017-08-23T06:25:49.330Z,31.10
2017-08-23T06:28:16.969Z,32.10
2017-08-23T06:30:44.545Z,32.30
2017-08-23T06:33:12.141Z,32.90
2017-08-23T06:35:39.703Z,33.80
2017-08-23T06:38:07.644Z,33.30
2017-08-23T06:40:35.216Z,33.50
2017-08-23T06:43:02.791Z,33.90
2017-08-23T06:45:30.393Z,33.00
2017-08-23T06:47:57.946Z,32.50
2017-08-23T06:50:25.529Z,33.70
2017-08-23T06:52:53.103Z,34.50
2017-08-23T06:55:20.984Z,35.10
2017-08-23T06:57:48.570Z,35.10
2017-08-23T07:00:16.151Z,34.60
2017-08-23T07:02:43.759Z,35.20
2017-08-23T07:05:11.345Z,36.20
2017-08-23T07:07:39.040Z,36.30
2017-08-23T07:10:06.607Z,36.70
2017-08-23T07:12:34.487Z,37.20
2017-08-23T07:15:02.087Z,37.70
2017-08-23T07:17:29.732Z,37.10
2017-08-23T07:19:57.340Z,37.20
2017-08-23T07:22:24.920Z,36.90
2017-08-23T07:24:52.535Z,36.80
2017-08-23T07:27:20.128Z,37.10
2017-08-23T07:29:48.024Z,37.60
2017-08-23T07:32:15.587Z,38.30
2017-08-23T07:34:43.155Z,39.10
2017-08-23T07:37:10.786Z,39.50
2017-08-23T07:39:38.375Z,39.20
2017-08-23T07:42:05.996Z,38.90
2017-08-23T07:44:33.580Z,38.70
2017-08-23T07:47:01.573Z,39.40
2017-08-23T07:49:29.139Z,37.90
2017-08-23T07:51:56.800Z,38.70
2017-08-23T07:54:24.403Z,38.70
2017-08-23T07:56:52.064Z,38.30
2017-08-23T07:59:19.888Z,39.40
2017-08-23T08:01:47.483Z,39.40
2017-08-23T08:04:15.373Z,38.40
2017-08-23T08:06:43.017Z,37.80
2017-08-23T08:09:10.596Z,37.20
2017-08-23T08:11:38.267Z,38.40
2017-08-23T08:14:05.858Z,38.60
2017-08-23T08:16:33.716Z,40.10
2017-08-23T08:19:01.289Z,39.90
2017-08-23T08:21:29.896Z,38.90
2017-08-23T08:23:57.454Z,38.90
2017-08-23T08:26:25.023Z,38.20
2017-08-23T08:28:52.615Z,37.80
2017-08-23T08:31:20.207Z,38.20
2017-08-23T08:33:47.795Z,39.20
2017-08-23T08:36:15.502Z,39.50
2017-08-23T08:38:43.367Z,40.40
2017-08-23T08:41:10.943Z,40.10
2017-08-23T08:43:38.511Z,40.10
2017-08-23T08:46:06.106Z,39.90
2017-08-23T08:48:33.634Z,40.40
2017-08-23T08:51:01.218Z,41.00
2017-08-23T08:53:28.805Z,41.00
2017-08-23T08:55:56.681Z,41.50
2017-08-23T08:58:24.264Z,41.30
2017-08-23T09:00:51.856Z,41.40
2017-08-23T09:03:19.472Z,41.80
2017-08-23T09:05:47.069Z,42.90
2017-08-23T09:08:15.414Z,43.00
2017-08-23T09:10:42.996Z,43.00
2017-08-23T09:13:10.935Z,42.10
2017-08-23T09:15:38.524Z,42.60
2017-08-23T09:18:06.113Z,42.70
2017-08-23T09:20:33.720Z,43.00
2017-08-23T09:23:01.320Z,43.40
2017-08-23T09:25:28.968Z,41.90
2017-08-23T09:27:56.560Z,41.30
2017-08-23T09:30:24.402Z,41.40
2017-08-23T09:32:51.984Z,41.40
2017-08-23T09:35:19.581Z,41.10
2017-08-23T09:37:47.180Z,42.10
2017-08-23T09:40:14.767Z,42.00
2017-08-23T09:42:42.367Z,41.70
2017-08-23T09:45:09.949Z,41.10
2017-08-23T09:47:37.942Z,39.90
2017-08-23T09:50:05.522Z,40.10
2017-08-23T09:52:33.102Z,40.50
2017-08-23T09:55:00.968Z,40.60
2017-08-23T09:57:28.569Z,39.90
2017-08-23T09:59:56.163Z,39.40
2017-08-23T10:02:23.744Z,41.00
2017-08-23T10:04:51.608Z,41.30
2017-08-23T10:07:19.199Z,41.80
2017-08-23T10:09:46.776Z,42.60
2017-08-23T10:12:15.140Z,42.30
2017-08-23T10:14:43.509Z,42.40
2017-08-23T10:17:11.118Z,42.30
2017-08-23T10:19:38.701Z,42.00
2017-08-23T10:22:06.282Z,40.80
2017-08-23T10:24:33.895Z,39.90
2017-08-23T10:27:01.501Z,39.90
2017-08-23T10:29:29.370Z,41.40
2017-08-23T10:31:56.952Z,42.30
2017-08-23T10:34:25.362Z,42.90
2017-08-23T10:36:53.110Z,42.90
2017-08-23T10:39:20.771Z,40.40
2017-08-23T10:41:48.683Z,40.90
2017-08-23T10:44:16.255Z,39.80
2017-08-23T10:46:43.834Z,41.30
2017-08-23T10:49:11.435Z,42.00
2017-08-23T10:51:39.047Z,41.40
2017-08-23T10:54:06.648Z,40.50
2017-08-23T10:56:34.218Z,42.00
2017-08-23T10:59:01.819Z,43.30
2017-08-23T11:01:29.392Z,43.50
2017-08-23T11:03:57.328Z,45.00
2017-08-23T11:06:24.927Z,45.60
2017-08-23T11:08:52.572Z,46.70
2017-08-23T11:11:20.185Z,47.00
2017-08-23T11:13:47.777Z,47.20
2017-08-23T11:16:15.577Z,47.20
2017-08-23T11:18:43.155Z,45.90
2017-08-23T11:21:11.055Z,45.30
2017-08-23T11:23:38.694Z,46.00
2017-08-23T11:26:06.283Z,46.40
2017-08-23T11:28:33.887Z,45.40
2017-08-23T11:31:02.247Z,45.30
2017-08-23T11:33:29.868Z,45.30
2017-08-23T11:35:57.439Z,45.30
2017-08-23T11:38:25.631Z,45.10
2017-08-23T11:40:53.207Z,46.20
2017-08-23T11:43:20.843Z,47.20
2017-08-23T11:45:48.471Z,47.40
2017-08-23T11:48:16.126Z,47.30
2017-08-23T11:50:43.727Z,47.40
2017-08-23T11:53:11.304Z,46.80
2017-08-23T11:55:39.148Z,46.60
2017-08-23T11:58:06.957Z,46.00
2017-08-23T12:00:34.543Z,45.60
2017-08-23T12:03:02.148Z,45.20
2017-08-23T12:05:29.739Z,45.90
2017-08-23T12:07:57.419Z,46.30
2017-08-23T12:10:25.013Z,45.50
2017-08-23T12:12:52.867Z,46.10
2017-08-23T12:15:20.422Z,46.10
2017-08-23T12:17:48.296Z,46.40
2017-08-23T12:20:15.904Z,45.50
2017-08-23T12:22:43.590Z,44.50
2017-08-23T12:25:11.227Z,43.60
2017-08-23T12:27:38.815Z,43.10
2017-08-23T12:30:06.703Z,41.80
2017-08-23T12:32:34.348Z,42.80
2017-08-23T12:35:01.924Z,43.20
2017-08-23T12:37:29.538Z,41.50
2017-08-23T12:39:57.194Z,41.90
2017-08-23T12:42:24.791Z,42.00
2017-08-23T12:44:52.379Z,41.50
2017-08-23T12:47:20.362Z,41.20
2017-08-23T12:49:48.717Z,40.30
2017-08-23T12:52:16.475Z,40.30
2017-08-23T12:54:44.080Z,40.40
2017-08-23T12:57:11.664Z,40.40
2017-08-23T12:59:39.272Z,40.20
2017-08-23T13:02:06.959Z,40.00
2017-08-23T13:04:34.948Z,39.80
2017-08-23T13:07:02.534Z,39.50
2017-08-23T13:09:30.148Z,39.00
2017-08-23T13:11:57.786Z,38.80
2017-08-23T13:14:25.376Z,38.20
2017-08-23T13:16:52.989Z,36.90
2017-08-23T13:19:20.648Z,36.00
2017-08-23T13:21:48.520Z,35.90
2017-08-23T13:24:16.108Z,35.60
2017-08-23T13:26:43.681Z,35.20
2017-08-23T13:29:12.157Z,34.40
2017-08-23T13:31:39.783Z,34.30
2017-08-23T13:34:07.371Z,34.20
2017-08-23T13:36:35.707Z,33.90
2017-08-23T13:39:03.963Z,33.90
2017-08-23T13:41:31.604Z,34.00
2017-08-23T13:43:59.184Z,33.80
2017-08-23T13:46:26.778Z,33.20
2017-08-23T13:48:54.403Z,32.90
2017-08-23T13:51:21.997Z,32.70
2017-08-23T13:53:49.567Z,32.50
2017-08-23T13:56:17.285Z,32.70
2017-08-23T13:58:44.882Z,33.00
2017-08-23T14:01:12.849Z,33.10
2017-08-23T14:03:40.435Z,33.20
2017-08-23T14:06:08.019Z,33.20
2017-08-23T14:08:35.624Z,33.10
2017-08-23T14:11:03.201Z,32.80
2017-08-23T14:13:30.800Z,33.00
2017-08-23T14:15:58.395Z,32.70
2017-08-23T14:18:26.340Z,32.60
2017-08-23T14:20:54.032Z,32.70
2017-08-23T14:23:21.646Z,32.70
2017-08-23T14:25:49.201Z,32.70
2017-08-23T14:28:16.886Z,32.50
2017-08-23T14:30:44.503Z,32.30
2017-08-23T14:33:12.174Z,32.20
2017-08-23T14:35:40.066Z,32.10
2017-08-23T14:38:07.693Z,32.10
2017-08-23T14:40:35.275Z,32.00
2017-08-23T14:43:02.886Z,32.10
2017-08-23T14:45:30.547Z,32.20
2017-08-23T14:47:58.254Z,32.40
2017-08-23T14:50:25.842Z,32.10
2017-08-23T14:52:53.739Z,32.20
2017-08-23T14:55:21.326Z,32.00
2017-08-23T14:57:49.009Z,31.90
2017-08-23T15:00:16.624Z,31.80
2017-08-23T15:02:44.221Z,31.50
2017-08-23T15:05:11.828Z,31.30
2017-08-23T15:07:39.505Z,31.50
2017-08-23T15:10:07.459Z,31.40
2017-08-23T15:12:35.111Z,31.30
2017-08-23T15:15:02.711Z,31.40
2017-08-23T15:17:30.329Z,31.40
2017-08-23T15:19:57.907Z,31.10
2017-08-23T15:22:25.537Z,31.30
2017-08-23T15:24:53.125Z,31.20
2017-08-23T15:27:21.323Z,31.00
2017-08-23T15:29:48.916Z,31.10
2017-08-23T15:32:16.502Z,31.00
2017-08-23T15:34:44.097Z,30.70
2017-08-23T15:37:11.836Z,30.70
2017-08-23T15:39:39.441Z,30.60
2017-08-23T15:42:07.019Z,30.60
2017-08-23T15:44:34.938Z,30.40
2017-08-23T15:47:02.550Z,30.50
2017-08-23T15:49:30.152Z,30.50
2017-08-23T15:51:57.753Z,30.40
2017-08-23T15:54:25.354Z,30.20
2017-08-23T15:56:52.961Z,30.40
2017-08-23T15:59:21.309Z,30.60
2017-08-23T16:01:48.927Z,30.70
2017-08-23T16:04:16.512Z,30.60
2017-08-23T16:06:44.405Z,30.50
2017-08-23T16:09:12.947Z,30.40
2017-08-23T16:11:40.532Z,30.40
2017-08-23T16:14:08.122Z,30.40
2017-08-23T16:16:35.739Z,30.40
2017-08-23T16:19:03.363Z,30.50
2017-08-23T16:21:30.939Z,30.40
2017-08-23T16:23:58.917Z,30.40
2017-08-23T16:26:26.507Z,30.30
2017-08-23T16:28:54.134Z,30.20
2017-08-23T16:31:21.733Z,29.90
2017-08-23T16:33:49.319Z,29.70
2017-08-23T16:36:16.972Z,29.60
2017-08-23T16:38:45.346Z,29.50
2017-08-23T16:41:13.288Z,29.40
2017-08-23T16:43:40.924Z,29.50
2017-08-23T16:46:08.495Z,29.50
2017-08-23T16:48:36.119Z,29.20
2017-08-23T16:51:04.726Z,29.10
2017-08-23T16:53:32.356Z,29.10
2017-08-23T16:55:59.928Z,28.90
2017-08-23T16:58:27.609Z,28.80
2017-08-23T17:00:55.270Z,28.80
2017-08-23T17:03:22.859Z,28.80
2017-08-23T17:05:50.468Z,28.70
2017-08-23T17:08:18.326Z,28.70
2017-08-23T17:10:46.379Z,28.80
2017-08-23T17:13:13.982Z,28.60
2017-08-23T17:15:41.578Z,28.70
2017-08-23T17:18:09.873Z,28.70
2017-08-23T17:20:37.482Z,28.60
2017-08-23T17:23:05.123Z,28.40
2017-08-23T17:25:32.806Z,28.40
2017-08-23T17:28:00.708Z,28.20
2017-08-23T17:30:28.304Z,27.90
2017-08-23T17:32:55.898Z,27.80
2017-08-23T17:35:23.478Z,27.60
2017-08-23T17:37:51.071Z,27.40
2017-08-23T17:40:19.059Z,27.20
2017-08-23T17:42:46.653Z,27.20
2017-08-23T17:45:14.236Z,27.10
2017-08-23T17:47:42.098Z,27.00
2017-08-23T17:50:09.790Z,26.90
2017-08-23T17:52:37.732Z,26.80
2017-08-23T17:55:05.329Z,26.60
2017-08-23T17:57:32.932Z,26.50
2017-08-23T18:00:00.679Z,26.40
2017-08-23T18:02:28.268Z,26.20
2017-08-23T18:04:56.202Z,26.10
2017-08-23T18:07:23.809Z,26.00
2017-08-23T18:09:51.414Z,25.90
2017-08-23T18:12:18.995Z,25.80
2017-08-23T18:14:46.594Z,25.70
2017-08-23T18:17:14.201Z,25.50
2017-08-23T18:19:41.785Z,25.30
2017-08-23T18:22:09.643Z,25.20
2017-08-23T18:24:37.221Z,25.00
2017-08-23T18:27:04.833Z,24.80
2017-08-23T18:29:32.514Z,24.60
2017-08-23T18:32:00.325Z,24.60
2017-08-23T18:34:28.106Z,24.50
2017-08-23T18:36:55.735Z,24.30
2017-08-23T18:39:23.356Z,24.20
2017-08-23T18:41:51.119Z,24.10
2017-08-23T18:44:18.718Z,24.00
2017-08-23T18:46:46.324Z,23.90
2017-08-23T18:49:16.279Z,23.80
2017-08-23T18:51:43.928Z,23.70
2017-08-23T18:54:11.592Z,23.50
2017-08-23T18:56:39.492Z,23.40
2017-08-23T18:59:07.071Z,23.40
2017-08-23T19:01:34.777Z,23.30
2017-08-23T19:04:02.669Z,23.20
2017-08-23T19:06:30.350Z,23.10
2017-08-23T19:08:57.909Z,23.00
2017-08-23T19:11:25.519Z,22.90
2017-08-23T19:13:53.183Z,22.70
2017-08-23T19:16:24.642Z,22.60
2017-08-23T19:18:52.272Z,22.50
2017-08-23T19:21:19.905Z,22.40
2017-08-23T19:23:47.549Z,22.30
2017-08-23T19:26:15.155Z,22.20
2017-08-23T19:28:46.036Z,22.20
2017-08-23T19:31:13.636Z,22.10
2017-08-23T19:33:42.288Z,22.10
2017-08-23T19:36:10.869Z,22.10
2017-08-23T19:38:40.711Z,22.00
2017-08-23T19:41:08.900Z,22.00
2017-08-23T19:43:36.688Z,22.00
2017-08-23T19:46:05.375Z,21.90
2017-08-23T19:48:32.970Z,21.90
2017-08-23T19:51:00.967Z,21.80
2017-08-23T19:53:28.602Z,21.70
2017-08-23T19:55:58.002Z,21.70
2017-08-23T19:58:25.813Z,21.60
2017-08-23T20:00:53.481Z,21.50
2017-08-23T20:03:21.347Z,21.50
2017-08-23T20:05:49.022Z,21.50
2017-08-23T20:08:26.953Z,21.50
2017-08-23T20:10:54.641Z,21.40
2017-08-23T20:13:22.232Z,21.40
2017-08-23T20:15:49.890Z,21.30
2017-08-23T20:18:17.581Z,21.20
2017-08-23T20:20:45.431Z,21.10
2017-08-23T20:23:13.012Z,21.00
2017-08-23T20:25:40.641Z,21.00
2017-08-23T20:28:08.388Z,21.10
2017-08-23T20:30:35.998Z,21.10
2017-08-23T20:33:04.036Z,21.00
2017-08-23T20:35:31.625Z,21.00
2017-08-23T20:37:59.254Z,20.90
2017-08-23T20:40:26.860Z,20.90
2017-08-23T20:42:54.628Z,20.80
2017-08-23T20:45:22.223Z,20.80
2017-08-23T20:47:49.798Z,20.80
2017-08-23T20:50:20.959Z,20.80
2017-08-23T20:52:48.547Z,20.70
2017-08-23T20:55:16.126Z,20.70
2017-08-23T20:57:43.842Z,20.80
2017-08-23T21:00:11.424Z,20.80
2017-08-23T21:02:39.031Z,20.80
2017-08-23T21:05:06.628Z,20.60
2017-08-23T21:07:34.497Z,20.50
2017-08-23T21:10:02.103Z,20.50
2017-08-23T21:12:29.665Z,20.40
2017-08-23T21:14:58.077Z,20.40
2017-08-23T21:17:25.803Z,20.30
2017-08-23T21:19:56.054Z,20.30
2017-08-23T21:22:24.207Z,20.30
2017-08-23T21:24:52.867Z,20.30
2017-08-23T21:27:20.452Z,20.30
2017-08-23T21:29:48.153Z,20.40
2017-08-23T21:32:15.757Z,20.40
2017-08-23T21:34:43.322Z,20.40
2017-08-23T21:37:10.965Z,20.40
2017-08-23T21:39:38.571Z,20.30
2017-08-23T21:42:06.584Z,20.30
2017-08-23T21:44:34.156Z,20.30
2017-08-23T21:47:01.798Z,20.20
2017-08-23T21:49:29.580Z,20.20
2017-08-23T21:51:57.282Z,20.20
2017-08-23T21:54:25.651Z,20.10
2017-08-23T21:56:53.426Z,20.00
2017-08-23T21:59:22.063Z,20.00
2017-08-23T22:01:51.023Z,19.90
2017-08-23T22:04:18.582Z,19.90
2017-08-23T22:06:50.157Z,19.90
2017-08-23T22:09:17.791Z,19.90
2017-08-23T22:11:45.394Z,19.80
2017-08-23T22:14:12.989Z,19.80
2017-08-23T22:16:40.840Z,19.80
2017-08-23T22:19:08.406Z,19.70
2017-08-23T22:21:35.975Z,19.70
2017-08-23T22:24:03.598Z,19.60
2017-08-23T22:26:31.169Z,19.60
2017-08-23T22:28:58.783Z,19.60
2017-08-23T22:31:31.947Z,19.60
2017-08-23T22:34:00.576Z,19.60
2017-08-23T22:36:28.133Z,19.60
2017-08-23T22:38:55.693Z,19.60
2017-08-23T22:41:23.851Z,19.60
2017-08-23T22:43:51.418Z,19.60
2017-08-23T22:46:19.765Z,19.60
2017-08-23T22:48:48.163Z,19.60
2017-08-23T22:51:16.136Z,19.60
2017-08-23T22:53:43.689Z,19.60
2017-08-23T22:56:11.351Z,19.60
2017-08-23T22:58:39.068Z,19.60
2017-08-23T23:01:06.686Z,19.50
2017-08-23T23:03:34.284Z,19.50
2017-08-23T23:06:01.857Z,19.50
2017-08-23T23:08:29.783Z,19.60
2017-08-23T23:10:57.425Z,19.60
2017-08-23T23:13:25.002Z,19.60
2017-08-23T23:15:52.616Z,19.60
2017-08-23T23:18:20.217Z,19.60
2017-08-23T23:20:47.801Z,19.50
2017-08-23T23:23:15.436Z,19.50
2017-08-23T23:25:43.525Z,19.50
2017-08-23T23:28:11.098Z,19.40
2017-08-23T23:30:38.678Z,19.30
2017-08-23T23:33:06.275Z,19.20
2017-08-23T23:35:33.867Z,19.10
2017-08-23T23:38:01.459Z,19.00
2017-08-23T23:40:29.804Z,19.10
2017-08-23T23:42:57.954Z,19.10
2017-08-23T23:45:25.602Z,19.00
2017-08-23T23:47:53.169Z,19.00
2017-08-23T23:50:20.803Z,19.00
2017-08-23T23:52:48.388Z,19.20
2017-08-23T23:55:15.968Z,19.20
2017-08-23T23:57:43.534Z,19.20
